Terminal Aerodrome Forecast
Issued by NWS

Home | Current Version | Previous Version | Text Only | Print | Product List | Glossary On
Versions: 1 2 3 4 5 6 7 8 9 10 11 12
364
FTUS45 KREV 050520
TAFMMH
TAF
KMMH 050520Z 0506/0606 26008KT P6SM SCT080 OVC140
     FM051900 12012G18KT P6SM VCSH SCT080 BKN140
     FM060500 VRB04KT P6SM VCSH SCT080 BKN140=

USA.gov is the U.S. government's official web portal to all federal, state and local government web resources and services.